METAR AND TAF INFORMATION
METAR FOR SOCA
ADDS - METARS form results

(1418 UTC 06 April 2020)
Data provider http://aviationweather.gov/metar/data/
 
METAR text: SOCA 061400Z AUTO 07010KT 9999 BKN021 OVC028 29/24 Q1014 NOSIG
Conditions at: SOCA (CAYENNE/ROCHAMBE, GY) observed 1400 UTC 06 April 2020
Temperature: 29.0°C (84°F)
Dewpoint: 24.0°C (75°F) [RH = 74%]
Pressure (altimeter): 29.94 inches Hg (1014.0 mb)
Winds: from the ENE (70 degrees) at 12 MPH (10 knots; 5.1 m/s)
Visibility: 6 or more miles (10+ km)
Ceiling: 2100 feet AGL
Clouds: broken clouds at 2100 feet AGL
overcast cloud deck at 2800 feet AGL
Weather: no significant weather observed at this time

METAR text: SOCA 061330Z AUTO 07013KT 9999 BKN023 OVC030 29/24 Q1014 NOSIG
Conditions at: SOCA (CAYENNE/ROCHAMBE, GY) observed 1330 UTC 06 April 2020
Temperature: 29.0°C (84°F)
Dewpoint: 24.0°C (75°F) [RH = 74%]
Pressure (altimeter): 29.94 inches Hg (1014.0 mb)
Winds: from the ENE (70 degrees) at 15 MPH (13 knots; 6.7 m/s)
Visibility: 6 or more miles (10+ km)
Ceiling: 2300 feet AGL
Clouds: broken clouds at 2300 feet AGL
overcast cloud deck at 3000 feet AGL
Weather: no significant weather observed at this time

Forecast for: SOCA (CAYENNE/ROCHAMBE, GY)
Text: TAF SOCA 061000Z 0612/0712 08016KT 9999 SCT030
Forecast period: 1200 to 2300 UTC 06 April 2020
Forecast type: FROM: standard forecast or significant change
Winds: from the E (80 degrees) at 18 MPH (16 knots; 8.2 m/s)
Visibility: 6 or more miles 10+ km)
Ceiling: at least 12,000 feet AGL
Clouds: scattered clouds at 3000 feet AGL
Weather: no significant weather forecast for this period
Text: FM062300 06008KT 9999 SCT020
Forecast period: 2300 UTC 06 April 2020 to 1200 UTC 07 April 2020
Forecast type: FROM: standard forecast or significant change
Winds: from the ENE (60 degrees) at 9 MPH (8 knots; 4.1 m/s)
Visibility: 6 or more miles 10+ km)
Ceiling: at least 12,000 feet AGL
Clouds: scattered clouds at 2000 feet AGL
Weather: no significant weather forecast for this period
Text: TEMPO 0705/0712 3000 SHRA SCT018TCU
Forecast period: 0500 to 1200 UTC 07 April 2020
Forecast type: TEMPORARY: The following changes expected for less than half the time period
Visibility: 1.86 miles (2.99 km)
Ceiling: at least 12,000 feet AGL
Clouds: scattered clouds at 1800 feet AGL
Weather: SHRA  (rain showers)

 AIRPORT MAP

 RUNWAY INFORMATION
Runway 08 Runway length 10486 ft Runway width 148 ft
Runway elevation 18 ft Runway displaced threshold 0 ft Runway heading 65
Runway 26 Runway length 10486 ft Runway width 148 ft
Runway elevation 25 ft Runway displaced threshold 0 ft Runway heading 245

 AIRPORT FREQUENCIES
Type APP Name APP Frequency 119.9 MHZ
Type ATIS Name ATIS Frequency 132.2 MHZ
Type TWR Name TWR Frequency 118.1 MHZ

 AIRPORT NEAR NAVIGATION AIDS
Type VOR-DME Name Cayenne Frequency 115950 KHZ
Type NDB Name Cayenne Frequency 327 KHZ